sensor_id;sensor_type;location;lat;lon;timestamp;pressure;altitude;pressure_sealevel;temperature;humidity
33625;BME280;19962;47.820;1.930;2022-12-29T00:01:35;99823.06;;;13.96;99.95
33625;BME280;19962;47.820;1.930;2022-12-29T00:04:02;99820.84;;;13.93;100.00
33625;BME280;19962;47.820;1.930;2022-12-29T00:06:28;99816.16;;;13.93;100.00
33625;BME280;19962;47.820;1.930;2022-12-29T00:08:54;99820.31;;;13.96;100.00
33625;BME280;19962;47.820;1.930;2022-12-29T00:11:23;99821.97;;;13.97;100.00
33625;BME280;19962;47.820;1.930;2022-12-29T00:13:50;99817.56;;;14.01;99.88
33625;BME280;19962;47.820;1.930;2022-12-29T00:16:35;99814.81;;;14.01;99.70
33625;BME280;19962;47.820;1.930;2022-12-29T00:19:03;99817.56;;;14.01;99.56
33625;BME280;19962;47.820;1.930;2022-12-29T00:21:29;99819.22;;;14.02;99.56
33625;BME280;19962;47.820;1.930;2022-12-29T00:24:19;99816.19;;;14.03;99.78
33625;BME280;19962;47.820;1.930;2022-12-29T00:29:47;99815.41;;;14.13;99.21
33625;BME280;19962;47.820;1.930;2022-12-29T00:32:31;99811.22;;;14.05;99.67
33625;BME280;19962;47.820;1.930;2022-12-29T00:35:27;99811.53;;;14.09;99.33
33625;BME280;19962;47.820;1.930;2022-12-29T00:37:57;99813.16;;;14.05;99.66
33625;BME280;19962;47.820;1.930;2022-12-29T00:40:43;99814.56;;;14.12;99.54
33625;BME280;19962;47.820;1.930;2022-12-29T00:43:28;99806.81;;;14.09;99.64
33625;BME280;19962;47.820;1.930;2022-12-29T00:46:12;99793.88;;;14.15;99.80
33625;BME280;19962;47.820;1.930;2022-12-29T00:48:38;99790.28;;;14.14;99.48
33625;BME280;19962;47.820;1.930;2022-12-29T00:51:23;99795.53;;;14.16;99.66
33625;BME280;19962;47.820;1.930;2022-12-29T00:53:49;99797.22;;;14.17;99.37
33625;BME280;19962;47.820;1.930;2022-12-29T00:56:15;99791.66;;;14.12;99.74
33625;BME280;19962;47.820;1.930;2022-12-29T00:58:41;99794.72;;;14.10;100.00
33625;BME280;19962;47.820;1.930;2022-12-29T01:01:08;99794.41;;;14.12;100.00
33625;BME280;19962;47.820;1.930;2022-12-29T01:03:36;99779.81;;;14.11;100.00
33625;BME280;19962;47.820;1.930;2022-12-29T01:06:08;99776.78;;;14.13;100.00
33625;BME280;19962;47.820;1.930;2022-12-29T01:08:35;99790.59;;;14.13;100.00
33625;BME280;19962;47.820;1.930;2022-12-29T01:11:09;99773.44;;;14.06;100.00
33625;BME280;19962;47.820;1.930;2022-12-29T01:13:36;99785.06;;;14.08;100.00
33625;BME280;19962;47.820;1.930;2022-12-29T01:16:05;99780.34;;;14.08;100.00
33625;BME280;19962;47.820;1.930;2022-12-29T01:18:31;99774.53;;;13.95;100.00
33625;BME280;19962;47.820;1.930;2022-12-29T01:21:02;99777.84;;;13.97;100.00
33625;BME280;19962;47.820;1.930;2022-12-29T01:23:29;99774.78;;;13.93;100.00
33625;BME280;19962;47.820;1.930;2022-12-29T01:25:55;99772.03;;;13.93;100.00
33625;BME280;19962;47.820;1.930;2022-12-29T01:28:22;99770.09;;;13.94;100.00
33625;BME280;19962;47.820;1.930;2022-12-29T01:30:48;99780.84;;;13.95;100.00
33625;BME280;19962;47.820;1.930;2022-12-29T01:33:15;99775.06;;;13.92;100.00
33625;BME280;19962;47.820;1.930;2022-12-29T01:35:41;99769.53;;;13.82;100.00
33625;BME280;19962;47.820;1.930;2022-12-29T01:38:07;99774.47;;;13.85;100.00
33625;BME280;19962;47.820;1.930;2022-12-29T01:40:33;99769.78;;;13.85;100.00
33625;BME280;19962;47.820;1.930;2022-12-29T01:43:00;99766.22;;;13.90;100.00
33625;BME280;19962;47.820;1.930;2022-12-29T01:45:26;99766.22;;;13.90;100.00
33625;BME280;19962;47.820;1.930;2022-12-29T01:47:59;99764.56;;;13.89;100.00
33625;BME280;19962;47.820;1.930;2022-12-29T01:50:33;99757.41;;;13.93;100.00
33625;BME280;19962;47.820;1.930;2022-12-29T01:53:26;99758.50;;;13.92;100.00
33625;BME280;19962;47.820;1.930;2022-12-29T01:55:58;99763.19;;;13.91;100.00
33625;BME280;19962;47.820;1.930;2022-12-29T01:58:30;99759.63;;;13.96;100.00
33625;BME280;19962;47.820;1.930;2022-12-29T02:00:57;99751.09;;;13.97;100.00
33625;BME280;19962;47.820;1.930;2022-12-29T02:03:24;99750.50;;;13.90;100.00
33625;BME280;19962;47.820;1.930;2022-12-29T02:06:20;99767.91;;;13.91;100.00
33625;BME280;19962;47.820;1.930;2022-12-29T02:08:47;99757.38;;;13.83;100.00
33625;BME280;19962;47.820;1.930;2022-12-29T02:11:16;99757.94;;;13.85;100.00
33625;BME280;19962;47.820;1.930;2022-12-29T02:13:42;99775.31;;;13.85;100.00
33625;BME280;19962;47.820;1.930;2022-12-29T02:16:30;99773.94;;;13.88;100.00
33625;BME280;19962;47.820;1.930;2022-12-29T02:22:05;99772.00;;;13.83;100.00
33625;BME280;19962;47.820;1.930;2022-12-29T02:27:38;99779.97;;;13.80;100.00
33625;BME280;19962;47.820;1.930;2022-12-29T02:45:56;99778.31;;;13.74;100.00
33625;BME280;19962;47.820;1.930;2022-12-29T02:48:34;99785.47;;;13.75;100.00
33625;BME280;19962;47.820;1.930;2022-12-29T02:51:06;99788.72;;;13.67;100.00
33625;BME280;19962;47.820;1.930;2022-12-29T02:53:35;99789.28;;;13.64;100.00
33625;BME280;19962;47.820;1.930;2022-12-29T02:56:21;99810.22;;;13.60;100.00
33625;BME280;19962;47.820;1.930;2022-12-29T02:58:47;99808.59;;;13.64;100.00
33625;BME280;19962;47.820;1.930;2022-12-29T03:01:24;99804.75;;;13.70;100.00
33625;BME280;19962;47.820;1.930;2022-12-29T03:07:12;99812.22;;;13.74;100.00
33625;BME280;19962;47.820;1.930;2022-12-29T03:09:49;99799.53;;;13.78;100.00
33625;BME280;19962;47.820;1.930;2022-12-29T03:12:31;99811.66;;;13.72;100.00
33625;BME280;19962;47.820;1.930;2022-12-29T03:15:28;99812.75;;;13.71;100.00
33625;BME280;19962;47.820;1.930;2022-12-29T03:21:17;99822.16;;;13.75;100.00
33625;BME280;19962;47.820;1.930;2022-12-29T03:23:46;99811.38;;;13.74;100.00
33625;BME280;19962;47.820;1.930;2022-12-29T03:26:15;99813.03;;;13.75;100.00
33625;BME280;19962;47.820;1.930;2022-12-29T03:28:47;99815.78;;;13.75;100.00
33625;BME280;19962;47.820;1.930;2022-12-29T03:31:16;99812.50;;;13.78;100.00
33625;BME280;19962;47.820;1.930;2022-12-29T03:33:44;99803.13;;;13.79;100.00
33625;BME280;19962;47.820;1.930;2022-12-29T03:36:20;99807.81;;;13.78;100.00
33625;BME280;19962;47.820;1.930;2022-12-29T03:38:57;99803.13;;;13.79;100.00
33625;BME280;19962;47.820;1.930;2022-12-29T03:41:26;99793.72;;;13.75;100.00
33625;BME280;19962;47.820;1.930;2022-12-29T03:43:54;99808.91;;;13.77;100.00
33625;BME280;19962;47.820;1.930;2022-12-29T03:46:20;99812.50;;;13.78;100.00
33625;BME280;19962;47.820;1.930;2022-12-29T03:48:46;99811.66;;;13.77;100.00
33625;BME280;19962;47.820;1.930;2022-12-29T03:51:12;99814.16;;;13.79;100.00
33625;BME280;19962;47.820;1.930;2022-12-29T03:53:38;99816.13;;;13.83;100.00
33625;BME280;19962;47.820;1.930;2022-12-29T03:56:05;99816.38;;;13.77;100.00
33625;BME280;19962;47.820;1.930;2022-12-29T03:58:31;99816.91;;;13.79;100.00
33625;BME280;19962;47.820;1.930;2022-12-29T04:00:57;99816.91;;;13.74;100.00
33625;BME280;19962;47.820;1.930;2022-12-29T04:03:24;99822.94;;;13.71;100.00
33625;BME280;19962;47.820;1.930;2022-12-29T04:05:50;99830.38;;;13.70;100.00
33625;BME280;19962;47.820;1.930;2022-12-29T04:08:16;99832.59;;;13.73;100.00
33625;BME280;19962;47.820;1.930;2022-12-29T04:10:42;99836.72;;;13.76;100.00
33625;BME280;19962;47.820;1.930;2022-12-29T04:13:08;99824.31;;;13.73;100.00
33625;BME280;19962;47.820;1.930;2022-12-29T04:15:34;99829.03;;;13.78;100.00
33625;BME280;19962;47.820;1.930;2022-12-29T04:18:00;99828.47;;;13.76;100.00
33625;BME280;19962;47.820;1.930;2022-12-29T04:20:26;99816.06;;;13.73;100.00
33625;BME280;19962;47.820;1.930;2022-12-29T04:23:11;99835.31;;;13.68;100.00
33625;BME280;19962;47.820;1.930;2022-12-29T04:25:37;99840.84;;;13.73;100.00
33625;BME280;19962;47.820;1.930;2022-12-29T04:28:03;99844.47;;;13.79;100.00
33625;BME280;19962;47.820;1.930;2022-12-29T04:30:29;99837.34;;;13.83;100.00
33625;BME280;19962;47.820;1.930;2022-12-29T04:32:55;99847.00;;;13.85;100.00
33625;BME280;19962;47.820;1.930;2022-12-29T04:35:21;99837.06;;;13.79;100.00
33625;BME280;19962;47.820;1.930;2022-12-29T04:37:47;99839.50;;;13.81;100.00
33625;BME280;19962;47.820;1.930;2022-12-29T04:40:13;99846.97;;;13.80;100.00
33625;BME280;19962;47.820;1.930;2022-12-29T04:42:40;99848.09;;;13.79;100.00
33625;BME280;19962;47.820;1.930;2022-12-29T04:45:06;99851.88;;;13.73;100.00
33625;BME280;19962;47.820;1.930;2022-12-29T04:47:32;99863.47;;;13.70;100.00
33625;BME280;19962;47.820;1.930;2022-12-29T04:49:59;99859.84;;;13.65;100.00
33625;BME280;19962;47.820;1.930;2022-12-29T04:52:25;99866.75;;;13.67;100.00
33625;BME280;19962;47.820;1.930;2022-12-29T04:54:51;99865.91;;;13.67;100.00
33625;BME280;19962;47.820;1.930;2022-12-29T04:57:17;99878.63;;;13.68;100.00
33625;BME280;19962;47.820;1.930;2022-12-29T04:59:43;99874.75;;;13.69;100.00
33625;BME280;19962;47.820;1.930;2022-12-29T05:02:09;99878.28;;;13.64;100.00
33625;BME280;19962;47.820;1.930;2022-12-29T05:04:35;99888.50;;;13.64;100.00
33625;BME280;19962;47.820;1.930;2022-12-29T05:07:01;99887.38;;;13.60;100.00
33625;BME280;19962;47.820;1.930;2022-12-29T05:09:27;99887.38;;;13.60;100.00
33625;BME280;19962;47.820;1.930;2022-12-29T05:11:53;99870.28;;;13.63;100.00
33625;BME280;19962;47.820;1.930;2022-12-29T05:14:19;99860.09;;;13.58;100.00
33625;BME280;19962;47.820;1.930;2022-12-29T05:16:46;99876.59;;;13.53;100.00
33625;BME280;19962;47.820;1.930;2022-12-29T05:19:12;99855.34;;;13.54;100.00
33625;BME280;19962;47.820;1.930;2022-12-29T05:21:38;99874.31;;;13.45;100.00
33625;BME280;19962;47.820;1.930;2022-12-29T05:24:04;99871.53;;;13.40;100.00
33625;BME280;19962;47.820;1.930;2022-12-29T05:26:30;99879.81;;;13.40;100.00
33625;BME280;19962;47.820;1.930;2022-12-29T05:28:56;99878.69;;;13.41;100.00
33625;BME280;19962;47.820;1.930;2022-12-29T05:31:23;99897.22;;;13.46;100.00
33625;BME280;19962;47.820;1.930;2022-12-29T05:33:49;99887.25;;;13.45;100.00
33625;BME280;19962;47.820;1.930;2022-12-29T05:36:15;99888.34;;;13.44;100.00
33625;BME280;19962;47.820;1.930;2022-12-29T05:38:41;99885.06;;;13.42;100.00
33625;BME280;19962;47.820;1.930;2022-12-29T05:41:07;99892.19;;;13.38;100.00
33625;BME280;19962;47.820;1.930;2022-12-29T05:43:33;99887.47;;;13.38;100.00
33625;BME280;19962;47.820;1.930;2022-12-29T05:45:59;99877.28;;;13.34;100.00
33625;BME280;19962;47.820;1.930;2022-12-29T05:48:26;99891.31;;;13.32;100.00
33625;BME280;19962;47.820;1.930;2022-12-29T05:50:52;99881.69;;;13.35;100.00
33625;BME280;19962;47.820;1.930;2022-12-29T05:53:19;99892.66;;;13.30;100.00
33625;BME280;19962;47.820;1.930;2022-12-29T05:55:47;99894.00;;;13.22;100.00
33625;BME280;19962;47.820;1.930;2022-12-29T05:58:14;99906.41;;;13.25;100.00
33625;BME280;19962;47.820;1.930;2022-12-29T06:00:40;99917.72;;;13.28;100.00
33625;BME280;19962;47.820;1.930;2022-12-29T06:03:06;99921.31;;;13.29;100.00
33625;BME280;19962;47.820;1.930;2022-12-29T06:05:32;99916.94;;;13.33;100.00
33625;BME280;19962;47.820;1.930;2022-12-29T06:07:59;99927.13;;;13.32;100.00
33625;BME280;19962;47.820;1.930;2022-12-29T06:10:25;99931.84;;;13.37;100.00
33625;BME280;19962;47.820;1.930;2022-12-29T06:12:51;99940.16;;;13.42;100.00
33625;BME280;19962;47.820;1.930;2022-12-29T06:15:17;99947.63;;;13.46;100.00
33625;BME280;19962;47.820;1.930;2022-12-29T06:17:43;99937.44;;;13.47;100.00
33625;BME280;19962;47.820;1.930;2022-12-29T06:20:10;99944.59;;;13.48;100.00
33625;BME280;19962;47.820;1.930;2022-12-29T06:22:36;99957.59;;;13.52;100.00
33625;BME280;19962;47.820;1.930;2022-12-29T06:25:03;99958.72;;;13.56;100.00
33625;BME280;19962;47.820;1.930;2022-12-29T06:27:31;99954.34;;;13.60;100.00
33625;BME280;19962;47.820;1.930;2022-12-29T06:29:57;99964.00;;;13.63;100.00
33625;BME280;19962;47.820;1.930;2022-12-29T06:32:23;99965.06;;;13.57;100.00
33625;BME280;19962;47.820;1.930;2022-12-29T06:34:49;99973.84;;;13.54;100.00
33625;BME280;19962;47.820;1.930;2022-12-29T06:37:15;99964.44;;;13.50;100.00
33625;BME280;19962;47.820;1.930;2022-12-29T06:39:41;99963.88;;;13.48;100.00
33625;BME280;19962;47.820;1.930;2022-12-29T06:42:09;99971.03;;;13.44;100.00
33625;BME280;19962;47.820;1.930;2022-12-29T06:44:35;99969.44;;;13.53;100.00
33625;BME280;19962;47.820;1.930;2022-12-29T06:47:02;99974.47;;;13.61;100.00
33625;BME280;19962;47.820;1.930;2022-12-29T06:49:28;99977.44;;;13.54;99.98
33625;BME280;19962;47.820;1.930;2022-12-29T06:51:54;99977.16;;;13.51;99.79
33625;BME280;19962;47.820;1.930;2022-12-29T06:54:20;99980.47;;;13.53;100.00
33625;BME280;19962;47.820;1.930;2022-12-29T06:56:46;99976.09;;;13.57;100.00
33625;BME280;19962;47.820;1.930;2022-12-29T06:59:12;99973.84;;;13.54;99.80
33625;BME280;19962;47.820;1.930;2022-12-29T07:01:38;99973.59;;;13.55;99.70
33625;BME280;19962;47.820;1.930;2022-12-29T07:04:04;99979.09;;;13.55;99.56
33625;BME280;19962;47.820;1.930;2022-12-29T07:06:30;99979.94;;;13.56;99.52
33625;BME280;19962;47.820;1.930;2022-12-29T07:08:57;99986.59;;;13.60;99.44
33625;BME280;19962;47.820;1.930;2022-12-29T07:11:23;99986.59;;;13.60;98.83
33625;BME280;19962;47.820;1.930;2022-12-29T07:13:50;99992.63;;;13.57;98.76
33625;BME280;19962;47.820;1.930;2022-12-29T07:16:16;99986.81;;;13.53;98.93
33625;BME280;19962;47.820;1.930;2022-12-29T07:18:42;99998.66;;;13.54;98.54
33625;BME280;19962;47.820;1.930;2022-12-29T07:21:08;100003.34;;;13.53;98.67
33625;BME280;19962;47.820;1.930;2022-12-29T07:23:34;99994.81;;;13.55;98.35
33625;BME280;19962;47.820;1.930;2022-12-29T07:26:07;100002.81;;;13.56;98.22
33625;BME280;19962;47.820;1.930;2022-12-29T07:28:34;100005.06;;;13.59;98.18
33625;BME280;19962;47.820;1.930;2022-12-29T07:31:01;100013.56;;;13.58;97.87
33625;BME280;19962;47.820;1.930;2022-12-29T07:33:31;100021.28;;;13.56;97.16
33625;BME280;19962;47.820;1.930;2022-12-29T07:35:58;100029.56;;;13.56;97.65
33625;BME280;19962;47.820;1.930;2022-12-29T07:38:24;100034.56;;;13.59;97.20
33625;BME280;19962;47.820;1.930;2022-12-29T07:40:51;100035.09;;;13.61;96.90
33625;BME280;19962;47.820;1.930;2022-12-29T07:43:17;100023.19;;;13.55;96.87
33625;BME280;19962;47.820;1.930;2022-12-29T07:45:43;100043.28;;;13.51;96.67
33625;BME280;19962;47.820;1.930;2022-12-29T07:48:09;100052.16;;;13.58;96.85
33625;BME280;19962;47.820;1.930;2022-12-29T07:50:36;100045.25;;;13.55;96.21
33625;BME280;19962;47.820;1.930;2022-12-29T07:53:03;100051.84;;;13.54;96.41
33625;BME280;19962;47.820;1.930;2022-12-29T07:55:29;100050.00;;;13.60;96.13
33625;BME280;19962;47.820;1.930;2022-12-29T07:57:56;100051.91;;;13.59;95.89
33625;BME280;19962;47.820;1.930;2022-12-29T08:00:22;100056.91;;;13.62;95.68
33625;BME280;19962;47.820;1.930;2022-12-29T08:02:49;100060.53;;;13.68;95.82
33625;BME280;19962;47.820;1.930;2022-12-29T08:05:15;100060.53;;;13.68;95.50
33625;BME280;19962;47.820;1.930;2022-12-29T08:07:43;100046.69;;;13.63;95.60
33625;BME280;19962;47.820;1.930;2022-12-29T08:10:10;100063.22;;;13.63;95.14
33625;BME280;19962;47.820;1.930;2022-12-29T08:12:40;100056.34;;;13.65;94.86
33625;BME280;19962;47.820;1.930;2022-12-29T08:15:08;100070.38;;;13.59;94.90
33625;BME280;19962;47.820;1.930;2022-12-29T08:17:35;100067.56;;;13.54;94.91
33625;BME280;19962;47.820;1.930;2022-12-29T08:20:01;100060.13;;;13.54;94.86
33625;BME280;19962;47.820;1.930;2022-12-29T08:22:27;100081.03;;;13.50;94.60
33625;BME280;19962;47.820;1.930;2022-12-29T08:24:53;100072.00;;;13.55;94.90
33625;BME280;19962;47.820;1.930;2022-12-29T08:27:20;100081.66;;;13.57;94.68
33625;BME280;19962;47.820;1.930;2022-12-29T08:29:46;100067.66;;;13.64;94.73
33625;BME280;19962;47.820;1.930;2022-12-29T08:32:12;100065.47;;;13.66;94.52
33625;BME280;19962;47.820;1.930;2022-12-29T08:34:38;100076.53;;;13.71;94.61
33625;BME280;19962;47.820;1.930;2022-12-29T08:37:04;100084.56;;;13.72;94.06
33625;BME280;19962;47.820;1.930;2022-12-29T08:39:31;100087.59;;;13.76;93.87
33625;BME280;19962;47.820;1.930;2022-12-29T08:41:57;100093.66;;;13.73;94.01
33625;BME280;19962;47.820;1.930;2022-12-29T08:44:23;100088.97;;;13.73;93.83
33625;BME280;19962;47.820;1.930;2022-12-29T08:46:49;100093.88;;;13.66;93.71
33625;BME280;19962;47.820;1.930;2022-12-29T08:49:15;100098.06;;;13.74;93.34
33625;BME280;19962;47.820;1.930;2022-12-29T08:51:41;100089.22;;;13.72;93.10
33625;BME280;19962;47.820;1.930;2022-12-29T08:54:07;100095.03;;;13.70;92.87
33625;BME280;19962;47.820;1.930;2022-12-29T08:56:34;100105.97;;;13.65;93.00
33625;BME280;19962;47.820;1.930;2022-12-29T08:59:00;100120.09;;;13.69;93.05
33625;BME280;19962;47.820;1.930;2022-12-29T09:01:26;100117.34;;;13.69;92.73
33625;BME280;19962;47.820;1.930;2022-12-29T09:03:54;100124.00;;;13.73;93.22
33625;BME280;19962;47.820;1.930;2022-12-29T09:06:21;100125.00;;;13.67;92.36
33625;BME280;19962;47.820;1.930;2022-12-29T09:08:47;100131.13;;;13.69;92.37
33625;BME280;19962;47.820;1.930;2022-12-29T09:11:19;100126.63;;;13.63;92.06
33625;BME280;19962;47.820;1.930;2022-12-29T09:13:46;100128.34;;;13.69;92.33
33625;BME280;19962;47.820;1.930;2022-12-29T09:16:12;100134.88;;;13.63;91.74
33625;BME280;19962;47.820;1.930;2022-12-29T09:18:38;100130.06;;;13.75;91.87
33625;BME280;19962;47.820;1.930;2022-12-29T09:21:06;100145.78;;;13.74;91.37
33625;BME280;19962;47.820;1.930;2022-12-29T09:23:34;100142.22;;;13.79;90.95
33625;BME280;19962;47.820;1.930;2022-12-29T09:26:00;100144.22;;;13.83;90.78
33625;BME280;19962;47.820;1.930;2022-12-29T09:28:26;100142.88;;;13.86;90.57
33625;BME280;19962;47.820;1.930;2022-12-29T09:30:55;100141.47;;;13.83;90.36
33625;BME280;19962;47.820;1.930;2022-12-29T09:33:21;100143.94;;;13.85;90.54
33625;BME280;19962;47.820;1.930;2022-12-29T09:35:52;100135.72;;;13.90;91.01
33625;BME280;19962;47.820;1.930;2022-12-29T09:38:19;100121.09;;;13.89;90.40
33625;BME280;19962;47.820;1.930;2022-12-29T09:40:53;100128.25;;;13.85;90.17
33625;BME280;19962;47.820;1.930;2022-12-29T09:46:25;100130.44;;;13.83;89.35
33625;BME280;19962;47.820;1.930;2022-12-29T09:51:31;100142.28;;;13.84;89.95
33625;BME280;19962;47.820;1.930;2022-12-29T09:56:44;100140.16;;;13.91;89.96
33625;BME280;19962;47.820;1.930;2022-12-29T09:59:26;100131.41;;;13.99;89.26
33625;BME280;19962;47.820;1.930;2022-12-29T10:02:04;100138.09;;;14.08;88.91
33625;BME280;19962;47.820;1.930;2022-12-29T10:04:36;100138.09;;;14.08;88.24
33625;BME280;19962;47.820;1.930;2022-12-29T10:07:10;100139.94;;;13.97;88.21
33625;BME280;19962;47.820;1.930;2022-12-29T10:23:52;100129.59;;;14.14;87.53
33625;BME280;19962;47.820;1.930;2022-12-29T10:26:27;100135.44;;;14.18;87.67
33625;BME280;19962;47.820;1.930;2022-12-29T10:28:59;100138.50;;;14.21;87.72
33625;BME280;19962;47.820;1.930;2022-12-29T10:31:40;100140.63;;;14.14;87.04
33625;BME280;19962;47.820;1.930;2022-12-29T10:34:15;100145.88;;;14.16;87.59
33625;BME280;19962;47.820;1.930;2022-12-29T10:36:48;100146.44;;;14.13;87.08
33625;BME280;19962;47.820;1.930;2022-12-29T10:44:37;100136.59;;;14.22;86.89
33625;BME280;19962;47.820;1.930;2022-12-29T10:47:06;100122.84;;;14.27;87.20
33625;BME280;19962;47.820;1.930;2022-12-29T10:49:40;100126.72;;;14.31;86.60
33625;BME280;19962;47.820;1.930;2022-12-29T10:52:09;100125.03;;;14.30;86.78
33625;BME280;19962;47.820;1.930;2022-12-29T10:54:59;100119.00;;;14.33;86.36
33625;BME280;19962;47.820;1.930;2022-12-29T10:57:41;100115.72;;;14.36;85.84
33625;BME280;19962;47.820;1.930;2022-12-29T11:07:39;100105.34;;;14.48;85.33
33625;BME280;19962;47.820;1.930;2022-12-29T11:10:35;100100.69;;;14.58;84.95
33625;BME280;19962;47.820;1.930;2022-12-29T11:13:26;100092.16;;;14.65;84.16
33625;BME280;19962;47.820;1.930;2022-12-29T11:15:53;100101.28;;;14.65;83.93
33625;BME280;19962;47.820;1.930;2022-12-29T11:18:26;100104.66;;;14.72;84.06
33625;BME280;19962;47.820;1.930;2022-12-29T11:20:55;100098.25;;;14.67;83.35
33625;BME280;19962;47.820;1.930;2022-12-29T11:23:42;100092.19;;;14.70;82.38
33625;BME280;19962;47.820;1.930;2022-12-29T11:26:19;100094.41;;;14.73;82.11
33625;BME280;19962;47.820;1.930;2022-12-29T11:31:51;100090.03;;;14.77;81.12
33625;BME280;19962;47.820;1.930;2022-12-29T11:36:48;100098.09;;;14.88;80.32
33625;BME280;19962;47.820;1.930;2022-12-29T11:42:38;100104.38;;;14.79;78.93
33625;BME280;19962;47.820;1.930;2022-12-29T11:45:16;100105.50;;;14.78;79.27
33625;BME280;19962;47.820;1.930;2022-12-29T11:47:53;100111.59;;;14.80;78.97
33625;BME280;19962;47.820;1.930;2022-12-29T11:50:29;100113.19;;;14.71;78.64
33625;BME280;19962;47.820;1.930;2022-12-29T11:53:05;100112.34;;;14.70;78.27
33625;BME280;19962;47.820;1.930;2022-12-29T11:55:34;100117.09;;;14.75;77.84
33625;BME280;19962;47.820;1.930;2022-12-29T11:58:02;100111.00;;;14.78;77.71
33625;BME280;19962;47.820;1.930;2022-12-29T12:00:32;100111.63;;;14.85;77.08
33625;BME280;19962;47.820;1.930;2022-12-29T12:03:19;100107.75;;;14.86;76.99
33625;BME280;19962;47.820;1.930;2022-12-29T12:05:54;100114.81;;;14.67;75.34
33625;BME280;19962;47.820;1.930;2022-12-29T12:08:31;100112.09;;;14.72;77.04
33625;BME280;19962;47.820;1.930;2022-12-29T12:11:20;100104.59;;;14.67;75.75
33625;BME280;19962;47.820;1.930;2022-12-29T12:13:57;100096.06;;;14.69;76.45
33625;BME280;19962;47.820;1.930;2022-12-29T12:16:46;100097.13;;;14.63;75.65
33625;BME280;19962;47.820;1.930;2022-12-29T12:22:38;100098.25;;;14.67;76.28
33625;BME280;19962;47.820;1.930;2022-12-29T12:25:20;100098.25;;;14.67;75.02
33625;BME280;19962;47.820;1.930;2022-12-29T12:28:42;100100.44;;;14.65;75.58
33625;BME280;19962;47.820;1.930;2022-12-29T12:31:57;100104.34;;;14.74;75.95
33625;BME280;19962;47.820;1.930;2022-12-29T12:34:01;100106.63;;;14.82;76.33
33625;BME280;19962;47.820;1.930;2022-12-29T12:39:19;100107.97;;;14.74;76.16
33625;BME280;19962;47.820;1.930;2022-12-29T12:45:02;100103.78;;;14.67;76.06
33625;BME280;19962;47.820;1.930;2022-12-29T12:50:28;100101.78;;;14.57;76.28
33625;BME280;19962;47.820;1.930;2022-12-29T12:56:01;100082.72;;;14.56;77.22
33625;BME280;19962;47.820;1.930;2022-12-29T13:01:24;100084.34;;;14.52;77.70
33625;BME280;19962;47.820;1.930;2022-12-29T13:09:48;100072.84;;;14.70;76.79
33625;BME280;19962;47.820;1.930;2022-12-29T13:12:23;100076.19;;;14.67;76.51
33625;BME280;19962;47.820;1.930;2022-12-29T13:15:14;100074.81;;;14.69;76.18
33625;BME280;19962;47.820;1.930;2022-12-29T13:18:18;100077.84;;;14.68;77.07
33625;BME280;19962;47.820;1.930;2022-12-29T13:20:59;100085.56;;;14.66;76.95
33625;BME280;19962;47.820;1.930;2022-12-29T13:26:20;100079.81;;;14.72;76.77
33625;BME280;19962;47.820;1.930;2022-12-29T13:32:10;100087.25;;;14.77;75.55
33625;BME280;19962;47.820;1.930;2022-12-29T13:37:50;100077.53;;;14.64;75.44
33625;BME280;19962;47.820;1.930;2022-12-29T13:40:21;100081.94;;;14.60;76.31
33625;BME280;19962;47.820;1.930;2022-12-29T13:42:49;100077.81;;;14.63;76.45
33625;BME280;19962;47.820;1.930;2022-12-29T13:45:20;100092.41;;;14.63;75.99
33625;BME280;19962;47.820;1.930;2022-12-29T13:50:38;100083.84;;;14.60;76.92
33625;BME280;19962;47.820;1.930;2022-12-29T13:55:59;100080.81;;;14.56;77.05
33625;BME280;19962;47.820;1.930;2022-12-29T14:08:48;100075.16;;;14.36;77.17
33625;BME280;19962;47.820;1.930;2022-12-29T14:11:17;100073.47;;;14.30;76.97
33625;BME280;19962;47.820;1.930;2022-12-29T14:13:47;100071.78;;;14.24;77.13
33625;BME280;19962;47.820;1.930;2022-12-29T14:18:55;100078.72;;;14.32;76.44
33625;BME280;19962;47.820;1.930;2022-12-29T14:21:25;100079.03;;;14.40;76.42
33625;BME280;19962;47.820;1.930;2022-12-29T14:26:46;100088.44;;;14.44;76.78
33625;BME280;19962;47.820;1.930;2022-12-29T14:31:51;100097.31;;;14.46;77.31
33625;BME280;19962;47.820;1.930;2022-12-29T14:37:02;100093.19;;;14.49;76.30
33625;BME280;19962;47.820;1.930;2022-12-29T14:39:33;100094.00;;;14.49;76.37
33625;BME280;19962;47.820;1.930;2022-12-29T14:42:21;100107.03;;;14.54;76.53
33625;BME280;19962;47.820;1.930;2022-12-29T14:45:08;100108.88;;;14.43;75.36
33625;BME280;19962;47.820;1.930;2022-12-29T14:47:52;100104.44;;;14.37;76.09
33625;BME280;19962;47.820;1.930;2022-12-29T14:50:43;100100.19;;;14.25;75.16
33625;BME280;19962;47.820;1.930;2022-12-29T14:56:10;100110.47;;;14.34;76.73
33625;BME280;19962;47.820;1.930;2022-12-29T14:59:02;100109.63;;;14.34;76.68
33625;BME280;19962;47.820;1.930;2022-12-29T15:01:38;100116.22;;;14.28;75.33
33625;BME280;19962;47.820;1.930;2022-12-29T15:04:21;100121.72;;;14.28;74.68
33625;BME280;19962;47.820;1.930;2022-12-29T15:06:49;100112.31;;;14.24;75.10
33625;BME280;19962;47.820;1.930;2022-12-29T15:09:35;100118.47;;;14.31;73.80
33625;BME280;19962;47.820;1.930;2022-12-29T15:14:57;100120.22;;;14.47;74.81
33625;BME280;19962;47.820;1.930;2022-12-29T15:20:00;100136.66;;;14.32;74.77
33625;BME280;19962;47.820;1.930;2022-12-29T15:22:26;100151.25;;;14.27;75.62
33625;BME280;19962;47.820;1.930;2022-12-29T15:24:54;100161.47;;;14.27;75.35
33625;BME280;19962;47.820;1.930;2022-12-29T15:27:24;100153.09;;;14.17;75.53
33625;BME280;19962;47.820;1.930;2022-12-29T15:30:02;100159.16;;;14.19;75.29
33625;BME280;19962;47.820;1.930;2022-12-29T15:32:39;100166.88;;;14.17;75.01